sensor_id;sensor_type;location;lat;lon;timestamp;pressure;altitude;pressure_sealevel;temperature;humidity
75045;BME280;63614;56.026;35.960;2023-03-23T00:01:48;98882.19;;;4.30;65.63
75045;BME280;63614;56.026;35.960;2023-03-23T00:04:17;98873.97;;;4.35;65.60
75045;BME280;63614;56.026;35.960;2023-03-23T00:06:44;98875.28;;;4.39;65.30
75045;BME280;63614;56.026;35.960;2023-03-23T00:09:13;98877.50;;;4.34;65.28
75045;BME280;63614;56.026;35.960;2023-03-23T00:11:42;98881.38;;;4.38;65.58
75045;BME280;63614;56.026;35.960;2023-03-23T00:14:09;98877.50;;;4.34;65.34
75045;BME280;63614;56.026;35.960;2023-03-23T00:16:40;98865.78;;;4.31;65.44
75045;BME280;63614;56.026;35.960;2023-03-23T00:19:11;98864.31;;;4.37;65.33
75045;BME280;63614;56.026;35.960;2023-03-23T00:21:41;98865.47;;;4.26;65.87
75045;BME280;63614;56.026;35.960;2023-03-23T00:24:10;98852.59;;;4.18;65.77
75045;BME280;63614;56.026;35.960;2023-03-23T00:26:39;98857.72;;;4.26;65.96
75045;BME280;63614;56.026;35.960;2023-03-23T00:29:20;98863.53;;;4.28;65.70
75045;BME280;63614;56.026;35.960;2023-03-23T00:31:52;98855.63;;;4.30;65.71
75045;BME280;63614;56.026;35.960;2023-03-23T00:34:20;98861.41;;;4.32;65.80
75045;BME280;63614;56.026;35.960;2023-03-23T00:36:49;98847.28;;;4.28;66.11
75045;BME280;63614;56.026;35.960;2023-03-23T00:39:16;98844.88;;;4.18;66.19
75045;BME280;63614;56.026;35.960;2023-03-23T00:41:44;98843.88;;;4.19;66.45
75045;BME280;63614;56.026;35.960;2023-03-23T00:44:11;98845.13;;;4.07;66.67
75045;BME280;63614;56.026;35.960;2023-03-23T00:46:46;98846.75;;;3.99;66.96
75045;BME280;63614;56.026;35.960;2023-03-23T00:49:20;98836.94;;;3.95;67.09
75045;BME280;63614;56.026;35.960;2023-03-23T00:51:56;98841.44;;;3.93;67.40
75045;BME280;63614;56.026;35.960;2023-03-23T00:54:24;98837.72;;;3.87;67.67
75045;BME280;63614;56.026;35.960;2023-03-23T00:56:50;98830.63;;;3.81;67.87
75045;BME280;63614;56.026;35.960;2023-03-23T00:59:16;98826.78;;;3.77;67.93
75045;BME280;63614;56.026;35.960;2023-03-23T01:01:43;98821.13;;;3.73;68.41
75045;BME280;63614;56.026;35.960;2023-03-23T01:04:10;98812.59;;;3.64;68.63
75045;BME280;63614;56.026;35.960;2023-03-23T01:06:38;98813.06;;;3.60;68.96
75045;BME280;63614;56.026;35.960;2023-03-23T01:09:11;98818.03;;;3.61;68.80
75045;BME280;63614;56.026;35.960;2023-03-23T01:11:44;98816.72;;;3.57;69.23
75045;BME280;63614;56.026;35.960;2023-03-23T01:14:11;98818.97;;;3.52;68.89
75045;BME280;63614;56.026;35.960;2023-03-23T01:16:38;98824.94;;;3.53;69.29
75045;BME280;63614;56.026;35.960;2023-03-23T01:19:05;98816.06;;;3.47;69.22
75045;BME280;63614;56.026;35.960;2023-03-23T01:21:31;98822.47;;;3.43;69.51
75045;BME280;63614;56.026;35.960;2023-03-23T01:23:57;98815.41;;;3.37;69.65
75045;BME280;63614;56.026;35.960;2023-03-23T01:26:25;98817.75;;;3.30;69.82
75045;BME280;63614;56.026;35.960;2023-03-23T01:28:52;98815.19;;;3.30;69.62
75045;BME280;63614;56.026;35.960;2023-03-23T01:31:23;98802.66;;;3.27;69.81
75045;BME280;63614;56.026;35.960;2023-03-23T01:33:50;98806.84;;;3.28;69.90
75045;BME280;63614;56.026;35.960;2023-03-23T01:36:26;98803.59;;;3.18;70.09
75045;BME280;63614;56.026;35.960;2023-03-23T01:38:59;98805.44;;;2.99;70.97
75045;BME280;63614;56.026;35.960;2023-03-23T01:41:26;98803.81;;;2.98;70.98
75045;BME280;63614;56.026;35.960;2023-03-23T01:46:55;98801.72;;;2.94;71.44
75045;BME280;63614;56.026;35.960;2023-03-23T01:49:25;98798.97;;;2.95;71.19
75045;BME280;63614;56.026;35.960;2023-03-23T01:51:56;98799.94;;;2.94;71.33
75045;BME280;63614;56.026;35.960;2023-03-23T01:54:24;98801.34;;;2.88;71.73
75045;BME280;63614;56.026;35.960;2023-03-23T01:56:54;98800.59;;;2.96;71.53
75045;BME280;63614;56.026;35.960;2023-03-23T01:59:22;98798.47;;;2.91;71.46
75045;BME280;63614;56.026;35.960;2023-03-23T02:01:59;98797.03;;;2.89;71.67
75045;BME280;63614;56.026;35.960;2023-03-23T02:04:26;98794.47;;;2.89;71.88
75045;BME280;63614;56.026;35.960;2023-03-23T02:06:53;98788.97;;;2.84;72.36
75045;BME280;63614;56.026;35.960;2023-03-23T02:09:22;98786.25;;;2.85;72.23
75045;BME280;63614;56.026;35.960;2023-03-23T02:11:49;98783.63;;;2.77;72.25
75045;BME280;63614;56.026;35.960;2023-03-23T02:14:18;98789.22;;;2.72;72.63
75045;BME280;63614;56.026;35.960;2023-03-23T02:17:10;98783.81;;;2.84;72.62
75045;BME280;63614;56.026;35.960;2023-03-23T02:20:00;98773.56;;;2.84;72.61
75045;BME280;63614;56.026;35.960;2023-03-23T02:28:25;98771.91;;;2.75;73.01
75045;BME280;63614;56.026;35.960;2023-03-23T02:36:55;98757.41;;;2.65;73.21
75045;BME280;63614;56.026;35.960;2023-03-23T02:39:34;98761.34;;;2.51;73.78
75045;BME280;63614;56.026;35.960;2023-03-23T02:42:07;98756.06;;;2.53;74.13
75045;BME280;63614;56.026;35.960;2023-03-23T02:44:36;98758.78;;;2.51;74.21
75045;BME280;63614;56.026;35.960;2023-03-23T02:47:06;98762.09;;;2.44;74.48
75045;BME280;63614;56.026;35.960;2023-03-23T02:49:35;98764.34;;;2.47;74.22
75045;BME280;63614;56.026;35.960;2023-03-23T02:52:07;98758.44;;;2.46;74.55
75045;BME280;63614;56.026;35.960;2023-03-23T02:54:34;98750.44;;;2.49;74.22
75045;BME280;63614;56.026;35.960;2023-03-23T02:57:01;98757.25;;;2.41;74.37
75045;BME280;63614;56.026;35.960;2023-03-23T02:59:30;98755.72;;;2.48;74.26
75045;BME280;63614;56.026;35.960;2023-03-23T03:02:01;98760.88;;;2.56;73.98
75045;BME280;63614;56.026;35.960;2023-03-23T03:04:31;98752.41;;;2.56;74.19
75045;BME280;63614;56.026;35.960;2023-03-23T03:07:09;98755.22;;;2.44;74.52
75045;BME280;63614;56.026;35.960;2023-03-23T03:09:53;98754.25;;;2.45;74.36
75045;BME280;63614;56.026;35.960;2023-03-23T03:16:20;98752.28;;;2.39;74.90
75045;BME280;63614;56.026;35.960;2023-03-23T03:18:40;98755.81;;;2.38;75.17
75045;BME280;63614;56.026;35.960;2023-03-23T03:21:12;98757.31;;;2.49;74.72
75045;BME280;63614;56.026;35.960;2023-03-23T03:23:42;98757.78;;;2.44;74.59
75045;BME280;63614;56.026;35.960;2023-03-23T03:26:11;98748.97;;;2.47;74.58
75045;BME280;63614;56.026;35.960;2023-03-23T03:28:48;98742.88;;;2.48;74.68
75045;BME280;63614;56.026;35.960;2023-03-23T03:31:23;98744.13;;;2.44;74.71
75045;BME280;63614;56.026;35.960;2023-03-23T03:33:51;98734.84;;;2.43;74.91
75045;BME280;63614;56.026;35.960;2023-03-23T03:36:21;98740.75;;;2.43;74.74
75045;BME280;63614;56.026;35.960;2023-03-23T03:38:50;98739.66;;;2.46;74.91
75045;BME280;63614;56.026;35.960;2023-03-23T03:41:18;98740.91;;;2.42;75.10
75045;BME280;63614;56.026;35.960;2023-03-23T03:43:45;98734.56;;;2.54;74.79
75045;BME280;63614;56.026;35.960;2023-03-23T03:46:11;98722.91;;;2.68;74.09
75045;BME280;63614;56.026;35.960;2023-03-23T03:48:38;98724.84;;;3.00;73.11
75045;BME280;63614;56.026;35.960;2023-03-23T03:51:04;98718.34;;;3.22;72.15
75045;BME280;63614;56.026;35.960;2023-03-23T03:53:34;98728.66;;;3.39;71.15
75045;BME280;63614;56.026;35.960;2023-03-23T03:56:00;98725.00;;;3.82;69.95
75045;BME280;63614;56.026;35.960;2023-03-23T03:58:33;98722.06;;;4.35;68.34
75045;BME280;63614;56.026;35.960;2023-03-23T04:01:04;98736.97;;;4.72;66.81
75045;BME280;63614;56.026;35.960;2023-03-23T04:03:35;98729.44;;;5.11;65.58
75045;BME280;63614;56.026;35.960;2023-03-23T04:06:15;98728.50;;;5.35;64.62
75045;BME280;63614;56.026;35.960;2023-03-23T04:08:42;98740.59;;;5.57;64.04
75045;BME280;63614;56.026;35.960;2023-03-23T04:11:09;98732.94;;;5.95;62.58
75045;BME280;63614;56.026;35.960;2023-03-23T04:13:36;98732.53;;;6.07;62.20
75045;BME280;63614;56.026;35.960;2023-03-23T04:16:14;98727.31;;;6.30;61.41
75045;BME280;63614;56.026;35.960;2023-03-23T04:18:43;98717.56;;;6.40;61.03
75045;BME280;63614;56.026;35.960;2023-03-23T04:21:09;98725.84;;;5.97;62.06
75045;BME280;63614;56.026;35.960;2023-03-23T04:23:36;98736.00;;;5.99;62.21
75045;BME280;63614;56.026;35.960;2023-03-23T04:26:03;98739.66;;;6.58;60.36
75045;BME280;63614;56.026;35.960;2023-03-23T04:28:35;98741.81;;;7.35;58.34
75045;BME280;63614;56.026;35.960;2023-03-23T04:31:19;98732.91;;;7.81;56.52
75045;BME280;63614;56.026;35.960;2023-03-23T04:33:51;98726.59;;;8.40;54.88
75045;BME280;63614;56.026;35.960;2023-03-23T04:36:23;98725.16;;;8.59;53.98
75045;BME280;63614;56.026;35.960;2023-03-23T04:38:57;98726.84;;;8.80;53.76
75045;BME280;63614;56.026;35.960;2023-03-23T04:41:25;98719.00;;;9.08;52.73
75045;BME280;63614;56.026;35.960;2023-03-23T04:44:12;98720.91;;;9.41;51.83
75045;BME280;63614;56.026;35.960;2023-03-23T04:46:48;98710.19;;;9.91;50.45
75045;BME280;63614;56.026;35.960;2023-03-23T04:49:20;98720.16;;;9.81;50.54
75045;BME280;63614;56.026;35.960;2023-03-23T04:51:47;98713.13;;;9.68;50.46
75045;BME280;63614;56.026;35.960;2023-03-23T04:54:31;98728.56;;;9.96;50.38
75045;BME280;63614;56.026;35.960;2023-03-23T04:57:00;98709.16;;;9.72;50.68
75045;BME280;63614;56.026;35.960;2023-03-23T04:59:26;98717.38;;;10.09;49.94
75045;BME280;63614;56.026;35.960;2023-03-23T05:02:03;98709.72;;;10.54;48.82
75045;BME280;63614;56.026;35.960;2023-03-23T05:04:29;98708.13;;;10.60;48.74
75045;BME280;63614;56.026;35.960;2023-03-23T05:07:01;98707.75;;;10.23;49.55
75045;BME280;63614;56.026;35.960;2023-03-23T05:09:30;98720.56;;;10.38;49.08
75045;BME280;63614;56.026;35.960;2023-03-23T05:11:56;98726.78;;;10.37;48.99
75045;BME280;63614;56.026;35.960;2023-03-23T05:14:24;98719.47;;;10.79;48.26
75045;BME280;63614;56.026;35.960;2023-03-23T05:17:08;98711.63;;;11.38;46.56
75045;BME280;63614;56.026;35.960;2023-03-23T05:19:35;98703.34;;;11.09;47.32
75045;BME280;63614;56.026;35.960;2023-03-23T05:22:10;98709.69;;;11.26;46.70
75045;BME280;63614;56.026;35.960;2023-03-23T05:24:44;98715.66;;;11.66;46.09
75045;BME280;63614;56.026;35.960;2023-03-23T05:27:10;98704.47;;;11.20;47.13
75045;BME280;63614;56.026;35.960;2023-03-23T05:29:40;98703.50;;;11.21;47.03
75045;BME280;63614;56.026;35.960;2023-03-23T05:32:07;98715.47;;;10.83;47.97
75045;BME280;63614;56.026;35.960;2023-03-23T05:34:36;98698.59;;;10.34;49.03
75045;BME280;63614;56.026;35.960;2023-03-23T05:37:03;98688.59;;;9.57;51.54
75045;BME280;63614;56.026;35.960;2023-03-23T05:39:45;98696.88;;;9.13;52.84
75045;BME280;63614;56.026;35.960;2023-03-23T05:42:34;98702.50;;;9.30;52.38
75045;BME280;63614;56.026;35.960;2023-03-23T05:45:09;98708.78;;;8.94;53.47
75045;BME280;63614;56.026;35.960;2023-03-23T05:47:37;98701.09;;;8.79;53.83
75045;BME280;63614;56.026;35.960;2023-03-23T05:50:09;98692.03;;;8.54;54.90
75045;BME280;63614;56.026;35.960;2023-03-23T05:52:37;98697.97;;;8.48;54.90
75045;BME280;63614;56.026;35.960;2023-03-23T05:55:07;98701.56;;;8.47;54.85
75045;BME280;63614;56.026;35.960;2023-03-23T05:57:35;98697.66;;;8.36;55.78
75045;BME280;63614;56.026;35.960;2023-03-23T06:00:05;98692.16;;;8.18;56.16
75045;BME280;63614;56.026;35.960;2023-03-23T06:02:47;98695.75;;;8.17;55.82
75045;BME280;63614;56.026;35.960;2023-03-23T06:05:19;98696.00;;;8.00;56.72
75045;BME280;63614;56.026;35.960;2023-03-23T06:07:51;98688.25;;;7.72;57.33
75045;BME280;63614;56.026;35.960;2023-03-23T06:10:17;98692.78;;;7.70;57.80
75045;BME280;63614;56.026;35.960;2023-03-23T06:12:50;98694.75;;;7.68;57.58
75045;BME280;63614;56.026;35.960;2023-03-23T06:15:33;98701.66;;;7.61;58.42
75045;BME280;63614;56.026;35.960;2023-03-23T06:17:59;98703.59;;;7.74;58.51
75045;BME280;63614;56.026;35.960;2023-03-23T06:20:32;98702.91;;;7.87;57.62
75045;BME280;63614;56.026;35.960;2023-03-23T06:23:06;98694.09;;;8.09;57.10
75045;BME280;63614;56.026;35.960;2023-03-23T06:25:35;98698.09;;;8.12;57.04
75045;BME280;63614;56.026;35.960;2023-03-23T06:28:01;98700.81;;;8.04;57.52
75045;BME280;63614;56.026;35.960;2023-03-23T06:30:28;98693.59;;;8.21;56.91
75045;BME280;63614;56.026;35.960;2023-03-23T06:32:56;98695.44;;;8.05;57.42
75045;BME280;63614;56.026;35.960;2023-03-23T06:35:43;98678.63;;;7.94;57.86
75045;BME280;63614;56.026;35.960;2023-03-23T06:38:27;98688.16;;;8.15;57.33
75045;BME280;63614;56.026;35.960;2023-03-23T06:40:54;98691.06;;;8.62;56.53
75045;BME280;63614;56.026;35.960;2023-03-23T06:43:22;98690.47;;;8.60;56.37
75045;BME280;63614;56.026;35.960;2023-03-23T06:46:07;98693.97;;;8.81;55.24
75045;BME280;63614;56.026;35.960;2023-03-23T06:48:36;98687.78;;;8.88;55.13
75045;BME280;63614;56.026;35.960;2023-03-23T06:51:03;98694.03;;;9.07;54.86
75045;BME280;63614;56.026;35.960;2023-03-23T06:53:30;98683.09;;;9.19;54.60
75045;BME280;63614;56.026;35.960;2023-03-23T06:55:58;98692.16;;;9.50;53.64
75045;BME280;63614;56.026;35.960;2023-03-23T06:58:25;98684.56;;;9.61;53.22
75045;BME280;63614;56.026;35.960;2023-03-23T07:00:56;98676.78;;;9.55;53.48
75045;BME280;63614;56.026;35.960;2023-03-23T07:03:29;98680.16;;;9.35;53.38
75045;BME280;63614;56.026;35.960;2023-03-23T07:05:57;98672.50;;;9.07;54.51
75045;BME280;63614;56.026;35.960;2023-03-23T07:08:31;98680.34;;;8.72;54.98
75045;BME280;63614;56.026;35.960;2023-03-23T07:10:57;98661.78;;;8.68;55.53
75045;BME280;63614;56.026;35.960;2023-03-23T07:13:29;98658.44;;;8.75;55.48
75045;BME280;63614;56.026;35.960;2023-03-23T07:15:58;98659.19;;;8.68;55.90
75045;BME280;63614;56.026;35.960;2023-03-23T07:18:25;98651.81;;;8.72;55.63
75045;BME280;63614;56.026;35.960;2023-03-23T07:20:53;98638.03;;;8.65;55.73
75045;BME280;63614;56.026;35.960;2023-03-23T07:23:22;98652.16;;;8.56;56.02
75045;BME280;63614;56.026;35.960;2023-03-23T07:25:59;98643.63;;;8.68;55.65
75045;BME280;63614;56.026;35.960;2023-03-23T07:28:32;98643.44;;;8.70;55.54
75045;BME280;63614;56.026;35.960;2023-03-23T07:31:05;98629.66;;;8.69;56.25
75045;BME280;63614;56.026;35.960;2023-03-23T07:33:31;98635.72;;;8.90;55.61
75045;BME280;63614;56.026;35.960;2023-03-23T07:35:58;98627.59;;;9.06;55.26
75045;BME280;63614;56.026;35.960;2023-03-23T07:38:26;98609.84;;;9.10;54.71
75045;BME280;63614;56.026;35.960;2023-03-23T07:40:54;98622.81;;;9.23;54.43
75045;BME280;63614;56.026;35.960;2023-03-23T07:43:20;98608.47;;;9.27;53.83
75045;BME280;63614;56.026;35.960;2023-03-23T07:46:05;98598.28;;;9.33;54.00
75045;BME280;63614;56.026;35.960;2023-03-23T07:48:51;98602.28;;;9.22;54.22
75045;BME280;63614;56.026;35.960;2023-03-23T07:51:19;98593.28;;;9.18;54.53
75045;BME280;63614;56.026;35.960;2023-03-23T07:53:49;98601.28;;;9.23;54.32
75045;BME280;63614;56.026;35.960;2023-03-23T07:56:37;98589.28;;;9.22;54.71
75045;BME280;63614;56.026;35.960;2023-03-23T07:59:11;98600.50;;;9.29;54.52
75045;BME280;63614;56.026;35.960;2023-03-23T08:01:39;98600.09;;;9.52;53.87
75045;BME280;63614;56.026;35.960;2023-03-23T08:04:23;98597.72;;;9.57;53.86
75045;BME280;63614;56.026;35.960;2023-03-23T08:07:08;98607.06;;;9.65;54.21
75045;BME280;63614;56.026;35.960;2023-03-23T08:10:01;98597.28;;;9.87;53.92
75045;BME280;63614;56.026;35.960;2023-03-23T08:12:30;98593.88;;;9.87;53.44
75045;BME280;63614;56.026;35.960;2023-03-23T08:15:35;98595.25;;;10.09;52.76
75045;BME280;63614;56.026;35.960;2023-03-23T08:18:12;98586.28;;;10.05;52.62
75045;BME280;63614;56.026;35.960;2023-03-23T08:21:03;98575.28;;;9.96;52.90
75045;BME280;63614;56.026;35.960;2023-03-23T08:23:48;98577.91;;;9.83;52.84
75045;BME280;63614;56.026;35.960;2023-03-23T08:26:46;98579.13;;;9.67;53.44
75045;BME280;63614;56.026;35.960;2023-03-23T08:29:12;98574.31;;;9.71;53.60
75045;BME280;63614;56.026;35.960;2023-03-23T08:31:57;98570.69;;;10.05;53.47
75045;BME280;63614;56.026;35.960;2023-03-23T08:34:41;98569.06;;;10.11;53.05
75045;BME280;63614;56.026;35.960;2023-03-23T08:37:08;98562.47;;;10.15;53.10
75045;BME280;63614;56.026;35.960;2023-03-23T08:39:40;98551.84;;;10.16;53.09
75045;BME280;63614;56.026;35.960;2023-03-23T08:42:24;98562.06;;;10.05;53.44
75045;BME280;63614;56.026;35.960;2023-03-23T08:45:12;98549.72;;;9.93;53.44
75045;BME280;63614;56.026;35.960;2023-03-23T08:48:02;98539.50;;;10.05;52.96
75045;BME280;63614;56.026;35.960;2023-03-23T08:50:46;98552.66;;;10.17;53.66
75045;BME280;63614;56.026;35.960;2023-03-23T08:53:30;98554.81;;;10.33;52.77
75045;BME280;63614;56.026;35.960;2023-03-23T08:56:15;98548.59;;;10.41;52.76
75045;BME280;63614;56.026;35.960;2023-03-23T08:58:46;98552.09;;;10.60;52.08
75045;BME280;63614;56.026;35.960;2023-03-23T09:01:36;98556.00;;;10.76;52.05
75045;BME280;63614;56.026;35.960;2023-03-23T09:04:25;98539.44;;;10.70;51.46
75045;BME280;63614;56.026;35.960;2023-03-23T09:07:18;98554.19;;;11.08;51.57
75045;BME280;63614;56.026;35.960;2023-03-23T09:09:44;98548.53;;;11.18;50.89
75045;BME280;63614;56.026;35.960;2023-03-23T09:12:11;98549.66;;;11.29;50.46
75045;BME280;63614;56.026;35.960;2023-03-23T09:14:38;98559.69;;;11.51;50.12
75045;BME280;63614;56.026;35.960;2023-03-23T09:17:05;98555.50;;;11.50;50.04
75045;BME280;63614;56.026;35.960;2023-03-23T09:19:32;98554.56;;;11.62;49.90
75045;BME280;63614;56.026;35.960;2023-03-23T09:21:59;98542.13;;;11.64;49.76
75045;BME280;63614;56.026;35.960;2023-03-23T09:24:26;98546.19;;;11.60;49.84
75045;BME280;63614;56.026;35.960;2023-03-23T09:26:52;98543.00;;;11.58;50.10
75045;BME280;63614;56.026;35.960;2023-03-23T09:29:18;98540.47;;;11.70;49.62
75045;BME280;63614;56.026;35.960;2023-03-23T09:31:44;98541.38;;;11.82;49.41
75045;BME280;63614;56.026;35.960;2023-03-23T09:34:12;98538.59;;;11.77;49.74
75045;BME280;63614;56.026;35.960;2023-03-23T09:36:42;98536.88;;;11.90;49.55
75045;BME280;63614;56.026;35.960;2023-03-23T09:39:08;98543.94;;;12.08;48.76
75045;BME280;63614;56.026;35.960;2023-03-23T09:47:39;98532.94;;;11.80;49.61
75045;BME280;63614;56.026;35.960;2023-03-23T09:50:15;98537.91;;;11.89;48.97
75045;BME280;63614;56.026;35.960;2023-03-23T09:52:48;98532.44;;;11.97;49.31
75045;BME280;63614;56.026;35.960;2023-03-23T09:55:17;98539.53;;;12.08;49.10
75045;BME280;63614;56.026;35.960;2023-03-23T10:00:35;98532.28;;;12.10;49.32
75045;BME280;63614;56.026;35.960;2023-03-23T10:05:39;98530.91;;;12.08;49.42
75045;BME280;63614;56.026;35.960;2023-03-23T10:08:14;98525.44;;;12.09;49.76
75045;BME280;63614;56.026;35.960;2023-03-23T10:13:32;98529.06;;;12.27;49.45
75045;BME280;63614;56.026;35.960;2023-03-23T10:16:03;98537.38;;;12.35;49.34
75045;BME280;63614;56.026;35.960;2023-03-23T10:18:37;98527.81;;;12.48;49.40
75045;BME280;63614;56.026;35.960;2023-03-23T10:21:03;98522.19;;;12.63;48.69
75045;BME280;63614;56.026;35.960;2023-03-23T10:31:59;98527.66;;;12.73;49.25
75045;BME280;63614;56.026;35.960;2023-03-23T10:34:54;98518.16;;;12.79;49.20
75045;BME280;63614;56.026;35.960;2023-03-23T10:37:42;98501.06;;;12.95;48.92
75045;BME280;63614;56.026;35.960;2023-03-23T10:40:15;98519.97;;;12.78;49.01
75045;BME280;63614;56.026;35.960;2023-03-23T10:42:42;98517.94;;;12.80;49.07
75045;BME280;63614;56.026;35.960;2023-03-23T10:47:45;98514.69;;;12.54;50.03
75045;BME280;63614;56.026;35.960;2023-03-23T10:50:15;98515.75;;;12.77;49.34
75045;BME280;63614;56.026;35.960;2023-03-23T10:52:43;98505.75;;;12.62;49.74
75045;BME280;63614;56.026;35.960;2023-03-23T10:55:14;98514.28;;;12.39;50.61
75045;BME280;63614;56.026;35.960;2023-03-23T10:57:46;98513.19;;;12.47;50.50
75045;BME280;63614;56.026;35.960;2023-03-23T11:00:23;98517.19;;;12.31;50.72
75045;BME280;63614;56.026;35.960;2023-03-23T11:03:17;98526.00;;;12.30;50.88
75045;BME280;63614;56.026;35.960;2023-03-23T11:05:56;98515.31;;;12.38;50.38
75045;BME280;63614;56.026;35.960;2023-03-23T11:08:28;98517.50;;;12.23;50.82
75045;BME280;63614;56.026;35.960;2023-03-23T11:11:09;98529.75;;;12.04;51.39
75045;BME280;63614;56.026;35.960;2023-03-23T11:13:40;98528.00;;;11.97;51.50
75045;BME280;63614;56.026;35.960;2023-03-23T11:16:08;98522.78;;;11.97;51.59
75045;BME280;63614;56.026;35.960;2023-03-23T11:18:40;98525.53;;;12.03;51.46
75045;BME280;63614;56.026;35.960;2023-03-23T11:21:11;98514.88;;;12.04;51.13
75045;BME280;63614;56.026;35.960;2023-03-23T11:23:43;98501.81;;;11.92;50.90
75045;BME280;63614;56.026;35.960;2023-03-23T11:26:20;98502.50;;;11.81;51.47
75045;BME280;63614;56.026;35.960;2023-03-23T11:29:05;98507.19;;;11.72;51.61
75045;BME280;63614;56.026;35.960;2023-03-23T11:31:39;98506.91;;;11.62;52.00
75045;BME280;63614;56.026;35.960;2023-03-23T11:34:14;98512.75;;;11.57;51.96
75045;BME280;63614;56.026;35.960;2023-03-23T11:36:55;98507.84;;;11.68;51.64
75045;BME280;63614;56.026;35.960;2023-03-23T11:39:30;98503.28;;;11.63;51.76
75045;BME280;63614;56.026;35.960;2023-03-23T11:42:02;98512.81;;;11.69;51.78
75045;BME280;63614;56.026;35.960;2023-03-23T11:44:42;98509.78;;;11.72;51.41
75045;BME280;63614;56.026;35.960;2023-03-23T11:47:25;98510.59;;;11.73;51.65
75045;BME280;63614;56.026;35.960;2023-03-23T11:50:08;98503.34;;;11.56;51.91
75045;BME280;63614;56.026;35.960;2023-03-23T11:55:21;98491.34;;;11.55;51.65
75045;BME280;63614;56.026;35.960;2023-03-23T11:57:49;98485.03;;;11.63;51.45
75045;BME280;63614;56.026;35.960;2023-03-23T12:00:17;98484.91;;;11.76;51.25
75045;BME280;63614;56.026;35.960;2023-03-23T12:02:55;98482.16;;;11.90;50.96
75045;BME280;63614;56.026;35.960;2023-03-23T12:16:43;98494.25;;;12.21;50.33
75045;BME280;63614;56.026;35.960;2023-03-23T12:28:06;98472.41;;;12.04;50.50
75045;BME280;63614;56.026;35.960;2023-03-23T12:39:14;98447.09;;;11.92;50.79
75045;BME280;63614;56.026;35.960;2023-03-23T12:42:07;98431.22;;;11.94;50.62
75045;BME280;63614;56.026;35.960;2023-03-23T12:44:46;98415.00;;;11.73;51.24
75045;BME280;63614;56.026;35.960;2023-03-23T12:47:25;98416.31;;;11.82;51.31
75045;BME280;63614;56.026;35.960;2023-03-23T12:50:18;98416.16;;;11.77;51.25
75045;BME280;63614;56.026;35.960;2023-03-23T12:56:02;98405.09;;;11.63;52.11
75045;BME280;63614;56.026;35.960;2023-03-23T12:58:31;98413.53;;;11.77;51.56
75045;BME280;63614;56.026;35.960;2023-03-23T13:01:26;98411.47;;;11.68;51.54
75045;BME280;63614;56.026;35.960;2023-03-23T13:03:58;98401.47;;;11.64;51.84
75045;BME280;63614;56.026;35.960;2023-03-23T13:06:35;98399.09;;;11.63;51.73
75045;BME280;63614;56.026;35.960;2023-03-23T13:09:11;98393.53;;;11.59;51.94
75045;BME280;63614;56.026;35.960;2023-03-23T13:11:41;98405.53;;;11.60;51.99
75045;BME280;63614;56.026;35.960;2023-03-23T13:22:14;98401.56;;;11.39;52.24
75045;BME280;63614;56.026;35.960;2023-03-23T13:25:06;98407.56;;;11.40;51.88
75045;BME280;63614;56.026;35.960;2023-03-23T13:27:34;98401.19;;;11.36;51.98
75045;BME280;63614;56.026;35.960;2023-03-23T13:30:00;98402.88;;;11.30;52.08
75045;BME280;63614;56.026;35.960;2023-03-23T13:32:37;98400.59;;;11.15;52.55
75045;BME280;63614;56.026;35.960;2023-03-23T13:35:13;98396.00;;;11.17;52.58
75045;BME280;63614;56.026;35.960;2023-03-23T13:37:46;98398.44;;;11.12;52.95
75045;BME280;63614;56.026;35.960;2023-03-23T13:40:21;98389.97;;;11.17;52.78
75045;BME280;63614;56.026;35.960;2023-03-23T13:42:57;98400.16;;;11.18;52.78
75045;BME280;63614;56.026;35.960;2023-03-23T13:45:36;98396.06;;;11.29;52.37
75045;BME280;63614;56.026;35.960;2023-03-23T13:50:55;98390.13;;;11.40;52.21
75045;BME280;63614;56.026;35.960;2023-03-23T13:53:30;98390.94;;;11.41;52.15
75045;BME280;63614;56.026;35.960;2023-03-23T13:56:13;98384.84;;;11.29;52.35
75045;BME280;63614;56.026;35.960;2023-03-23T13:59:03;98386.59;;;11.35;52.51
75045;BME280;63614;56.026;35.960;2023-03-23T14:01:32;98380.56;;;11.34;52.14
75045;BME280;63614;56.026;35.960;2023-03-23T14:04:04;98378.47;;;11.24;52.42
75045;BME280;63614;56.026;35.960;2023-03-23T14:06:35;98384.34;;;11.20;52.27
75045;BME280;63614;56.026;35.960;2023-03-23T14:09:39;98374.28;;;11.05;52.64
75045;BME280;63614;56.026;35.960;2023-03-23T14:12:42;98370.22;;;10.90;53.08
75045;BME280;63614;56.026;35.960;2023-03-23T14:15:12;98370.06;;;10.85;53.00
75045;BME280;63614;56.026;35.960;2023-03-23T14:17:43;98364.97;;;10.72;53.10
75045;BME280;63614;56.026;35.960;2023-03-23T14:20:23;98360.19;;;10.69;53.54
75045;BME280;63614;56.026;35.960;2023-03-23T14:22:54;98360.25;;;10.62;53.63
75045;BME280;63614;56.026;35.960;2023-03-23T14:25:21;98359.59;;;10.67;53.34
75045;BME280;63614;56.026;35.960;2023-03-23T14:27:51;98353.47;;;10.61;53.91
75045;BME280;63614;56.026;35.960;2023-03-23T14:30:22;98354.91;;;10.57;53.78
75045;BME280;63614;56.026;35.960;2023-03-23T14:32:52;98347.38;;;10.49;53.98
75045;BME280;63614;56.026;35.960;2023-03-23T14:35:31;98344.59;;;10.44;54.02
75045;BME280;63614;56.026;35.960;2023-03-23T14:37:57;98348.00;;;10.44;54.08
75045;BME280;63614;56.026;35.960;2023-03-23T14:40:26;98332.25;;;10.39;54.44
75045;BME280;63614;56.026;35.960;2023-03-23T14:42:53;98349.19;;;10.42;54.03
75045;BME280;63614;56.026;35.960;2023-03-23T14:45:21;98343.06;;;10.36;54.19
75045;BME280;63614;56.026;35.960;2023-03-23T14:47:51;98340.75;;;10.21;54.78
75045;BME280;63614;56.026;35.960;2023-03-23T14:50:37;98337.75;;;10.17;54.77
75045;BME280;63614;56.026;35.960;2023-03-23T14:53:19;98334.00;;;10.13;55.07
75045;BME280;63614;56.026;35.960;2023-03-23T14:55:47;98330.22;;;10.09;55.00